createdAt,value
2018-04-06T00:01:52.815Z,63.34
2018-04-06T00:04:20.274Z,63.46
2018-04-06T00:06:47.752Z,63.85
2018-04-06T00:09:15.183Z,63.76
2018-04-06T00:11:42.612Z,63.62
2018-04-06T00:14:10.253Z,63.53
2018-04-06T00:16:37.646Z,63.50
2018-04-06T00:19:05.038Z,63.50
2018-04-06T00:21:32.537Z,63.31
2018-04-06T00:23:59.987Z,63.40
2018-04-06T00:26:27.398Z,63.52
2018-04-06T00:28:54.797Z,63.62
2018-04-06T00:31:22.229Z,63.56
2018-04-06T00:33:49.704Z,63.37
2018-04-06T00:36:17.128Z,63.27
2018-04-06T00:38:44.613Z,63.20
2018-04-06T00:41:12.049Z,62.97
2018-04-06T00:43:39.511Z,62.93
2018-04-06T00:46:06.951Z,62.85
2018-04-06T00:48:34.383Z,63.06
2018-04-06T00:51:01.965Z,63.22
2018-04-06T00:53:41.122Z,63.12
2018-04-06T00:56:08.586Z,63.48
2018-04-06T00:58:36.186Z,63.44
2018-04-06T01:01:03.643Z,63.20
2018-04-06T01:03:31.070Z,63.34
2018-04-06T01:05:58.531Z,63.70
2018-04-06T01:08:26.036Z,63.72
2018-04-06T01:10:53.485Z,63.93
2018-04-06T01:13:20.966Z,63.95
2018-04-06T01:15:48.417Z,64.29
2018-04-06T01:18:15.861Z,64.20
2018-04-06T01:20:43.274Z,64.17
2018-04-06T01:23:10.693Z,64.10
2018-04-06T01:25:38.131Z,64.24
2018-04-06T01:28:05.540Z,64.62
2018-04-06T01:30:33.052Z,64.93
2018-04-06T01:33:00.493Z,65.39
2018-04-06T01:35:28.042Z,65.54
2018-04-06T01:37:55.475Z,65.61
2018-04-06T01:40:22.893Z,65.77
2018-04-06T01:42:50.301Z,65.92
2018-04-06T01:45:17.707Z,66.04
2018-04-06T01:47:45.134Z,66.00
2018-04-06T01:50:12.584Z,65.92
2018-04-06T01:52:40.043Z,65.95
2018-04-06T01:55:07.520Z,65.90
2018-04-06T01:57:34.943Z,66.01
2018-04-06T02:00:02.399Z,65.78
2018-04-06T02:02:30.706Z,66.05
2018-04-06T02:04:58.321Z,66.24
2018-04-06T02:07:25.739Z,66.40
2018-04-06T02:09:53.164Z,66.73
2018-04-06T02:12:20.552Z,67.06
2018-04-06T02:14:48.022Z,67.08
2018-04-06T02:17:15.447Z,66.82
2018-04-06T02:19:43.053Z,66.89
2018-04-06T02:22:10.510Z,67.18
2018-04-06T02:24:37.945Z,67.42
2018-04-06T02:27:05.362Z,67.61
2018-04-06T02:29:33.047Z,67.78
2018-04-06T02:32:00.481Z,67.83
2018-04-06T02:34:27.907Z,67.88
2018-04-06T02:36:55.330Z,67.76
2018-04-06T02:39:22.763Z,67.70
2018-04-06T02:41:50.210Z,67.69
2018-04-06T02:44:17.674Z,67.92
2018-04-06T02:46:45.126Z,67.97
2018-04-06T02:49:12.656Z,68.43
2018-04-06T02:51:40.144Z,68.50
2018-04-06T02:54:07.566Z,68.63
2018-04-06T02:56:35.008Z,69.01
2018-04-06T02:59:02.434Z,68.80
2018-04-06T03:01:29.884Z,68.47
2018-04-06T03:03:57.330Z,68.41
2018-04-06T03:06:24.755Z,68.67
2018-04-06T03:08:52.211Z,69.01
2018-04-06T03:11:19.620Z,69.50
2018-04-06T03:13:47.088Z,69.13
2018-04-06T03:16:14.474Z,69.03
2018-04-06T03:18:41.900Z,69.22
2018-04-06T03:21:09.353Z,69.35
2018-04-06T03:23:36.736Z,69.25
2018-04-06T03:26:04.171Z,69.42
2018-04-06T03:28:32.334Z,69.58
2018-04-06T03:30:59.812Z,69.41
2018-04-06T03:33:27.208Z,69.58
2018-04-06T03:35:54.665Z,69.40
2018-04-06T03:38:22.102Z,69.31
2018-04-06T03:40:49.555Z,69.31
2018-04-06T03:43:16.993Z,69.23
2018-04-06T03:45:44.415Z,69.48
2018-04-06T03:48:11.816Z,69.21
2018-04-06T03:50:39.260Z,69.16
2018-04-06T03:53:06.743Z,69.41
2018-04-06T03:55:34.124Z,69.41
2018-04-06T03:58:01.532Z,69.41
2018-04-06T04:00:28.998Z,69.29
2018-04-06T04:02:56.396Z,69.40
2018-04-06T04:05:23.960Z,69.34
2018-04-06T04:07:51.354Z,69.46
2018-04-06T04:10:19.605Z,69.37
2018-04-06T04:12:47.029Z,69.29
2018-04-06T04:15:14.473Z,69.46
2018-04-06T04:17:41.970Z,69.47
2018-04-06T04:20:09.358Z,69.45
2018-04-06T04:22:36.759Z,69.35
2018-04-06T04:25:04.190Z,69.30
2018-04-06T04:27:32.622Z,69.45
2018-04-06T04:30:00.058Z,69.70
2018-04-06T04:32:27.537Z,69.83
2018-04-06T04:34:54.930Z,69.77
2018-04-06T04:37:22.336Z,69.63
2018-04-06T04:39:49.783Z,69.58
2018-04-06T04:42:17.284Z,69.48
2018-04-06T04:44:44.744Z,69.37
2018-04-06T04:47:12.139Z,69.39
2018-04-06T04:49:39.573Z,69.61
2018-04-06T04:52:06.988Z,70.01
2018-04-06T04:54:34.494Z,70.25
2018-04-06T04:57:02.102Z,70.02
2018-04-06T04:59:29.661Z,69.93
2018-04-06T05:01:57.071Z,69.93
2018-04-06T05:04:24.459Z,70.26
2018-04-06T05:06:51.990Z,70.24
2018-04-06T05:09:19.384Z,70.20
2018-04-06T05:11:46.826Z,70.04
2018-04-06T05:14:14.274Z,70.19
2018-04-06T05:16:41.705Z,70.38
2018-04-06T05:19:09.099Z,70.10
2018-04-06T05:21:36.496Z,69.46
2018-04-06T05:24:03.904Z,69.58
2018-04-06T05:26:31.504Z,69.34
2018-04-06T05:28:58.942Z,69.13
2018-04-06T05:31:26.937Z,68.94
2018-04-06T05:33:54.390Z,68.81
2018-04-06T05:36:21.800Z,68.72
2018-04-06T05:38:49.323Z,68.47
2018-04-06T05:41:16.758Z,68.21
2018-04-06T05:43:44.295Z,68.00
2018-04-06T05:46:11.670Z,67.53
2018-04-06T05:48:39.106Z,67.46
2018-04-06T05:51:06.884Z,67.55
2018-04-06T05:53:34.338Z,67.53
2018-04-06T05:56:01.749Z,67.21
2018-04-06T05:58:29.217Z,66.87
2018-04-06T06:00:56.655Z,66.50
2018-04-06T06:03:24.105Z,65.80
2018-04-06T06:05:51.559Z,64.20
2018-04-06T06:08:18.947Z,63.40
2018-04-06T06:10:46.430Z,62.75
2018-04-06T06:13:13.854Z,61.85
2018-04-06T06:15:41.293Z,61.11
2018-04-06T06:18:08.814Z,59.99
2018-04-06T06:20:36.278Z,58.60
2018-04-06T06:23:03.724Z,56.97
2018-04-06T06:25:31.216Z,54.90
2018-04-06T06:27:58.669Z,52.92
2018-04-06T06:30:26.112Z,51.50
2018-04-06T06:32:53.573Z,50.80
2018-04-06T06:35:21.001Z,50.25
2018-04-06T06:37:48.475Z,50.16
2018-04-06T06:40:15.961Z,51.23
2018-04-06T06:42:43.395Z,52.35
2018-04-06T06:45:10.851Z,52.89
2018-04-06T06:47:38.280Z,52.85
2018-04-06T06:50:05.721Z,52.47
2018-04-06T06:52:33.215Z,51.87
2018-04-06T06:55:00.632Z,50.91
2018-04-06T06:57:28.055Z,49.64
2018-04-06T06:59:55.498Z,48.25
2018-04-06T07:02:23.067Z,47.64
2018-04-06T07:04:50.456Z,46.80
2018-04-06T07:07:17.950Z,46.59
2018-04-06T07:09:45.393Z,47.33
2018-04-06T07:12:12.786Z,47.85
2018-04-06T07:14:40.238Z,47.57
2018-04-06T07:17:07.674Z,46.64
2018-04-06T07:19:35.109Z,46.54
2018-04-06T07:22:02.563Z,46.04
2018-04-06T07:24:30.041Z,45.74
2018-04-06T07:26:57.515Z,45.67
2018-04-06T07:29:25.008Z,44.56
2018-04-06T07:31:52.563Z,43.94
2018-04-06T07:34:19.993Z,43.64
2018-04-06T07:36:47.438Z,44.36
2018-04-06T07:39:14.868Z,43.62
2018-04-06T07:41:42.297Z,43.01
2018-04-06T07:44:09.727Z,43.13
2018-04-06T07:46:37.951Z,42.81
2018-04-06T07:49:05.394Z,42.38
2018-04-06T07:51:33.214Z,41.51
2018-04-06T07:54:00.901Z,41.85
2018-04-06T07:56:28.430Z,42.18
2018-04-06T07:58:55.904Z,41.37
2018-04-06T08:01:23.333Z,40.36
2018-04-06T08:03:50.741Z,40.06
2018-04-06T08:06:18.165Z,38.95
2018-04-06T08:08:45.730Z,38.04
2018-04-06T08:11:13.200Z,37.62
2018-04-06T08:13:40.619Z,37.04
2018-04-06T08:16:08.215Z,37.33
2018-04-06T08:18:35.817Z,37.25
2018-04-06T08:21:03.269Z,37.90
2018-04-06T08:23:30.692Z,37.99
2018-04-06T08:25:58.151Z,37.93
2018-04-06T08:28:25.594Z,38.29
2018-04-06T08:30:53.031Z,38.34
2018-04-06T08:33:20.445Z,37.96
2018-04-06T08:35:47.856Z,38.80
2018-04-06T08:38:15.316Z,37.43
2018-04-06T08:40:42.707Z,36.42
2018-04-06T08:43:10.161Z,36.19
2018-04-06T08:45:37.652Z,37.37
2018-04-06T08:48:05.986Z,37.68
2018-04-06T08:50:33.586Z,37.55
2018-04-06T08:53:01.071Z,37.95
2018-04-06T08:55:28.503Z,38.44
2018-04-06T08:57:55.895Z,38.90
2018-04-06T09:00:23.367Z,39.34
2018-04-06T09:02:50.849Z,40.00
2018-04-06T09:05:18.350Z,40.00
2018-04-06T09:07:45.823Z,40.38
2018-04-06T09:10:13.422Z,41.49
2018-04-06T09:12:40.941Z,41.36
2018-04-06T09:15:08.456Z,41.00
2018-04-06T09:17:35.864Z,41.56
2018-04-06T09:20:03.278Z,41.18
2018-04-06T09:22:31.517Z,41.06
2018-04-06T09:24:58.918Z,40.84
2018-04-06T09:27:26.430Z,41.04
2018-04-06T09:29:54.049Z,42.01
2018-04-06T09:32:22.207Z,41.95
2018-04-06T09:34:49.615Z,41.96
2018-04-06T09:37:17.064Z,41.59
2018-04-06T09:39:45.232Z,41.60
2018-04-06T09:42:12.681Z,41.52
2018-04-06T09:44:40.126Z,41.17
2018-04-06T09:47:07.545Z,40.36
2018-04-06T09:49:35.085Z,40.46
2018-04-06T09:52:02.496Z,40.13
2018-04-06T09:54:29.932Z,40.65
2018-04-06T09:56:57.404Z,40.43
2018-04-06T09:59:24.861Z,40.55
2018-04-06T10:01:56.439Z,40.63
2018-04-06T10:04:23.841Z,40.17
2018-04-06T10:06:51.227Z,39.93
2018-04-06T10:09:18.673Z,39.66
2018-04-06T10:11:46.205Z,39.97
2018-04-06T10:14:13.652Z,40.39
2018-04-06T10:16:41.096Z,40.03
2018-04-06T10:19:08.553Z,39.59
2018-04-06T10:21:36.032Z,39.16
2018-04-06T10:24:03.659Z,39.05
2018-04-06T10:26:31.114Z,38.84
2018-04-06T10:28:58.574Z,39.33
2018-04-06T10:31:26.025Z,38.98
2018-04-06T10:33:53.470Z,38.89
2018-04-06T10:36:20.919Z,38.96
2018-04-06T10:38:48.407Z,38.59
2018-04-06T10:41:15.873Z,38.71
2018-04-06T10:43:43.276Z,38.87
2018-04-06T10:46:11.643Z,38.66
2018-04-06T10:48:39.086Z,37.65
2018-04-06T10:51:06.560Z,38.34
2018-04-06T10:53:34.089Z,38.19
2018-04-06T10:56:01.557Z,38.31
2018-04-06T10:58:29.023Z,38.11
2018-04-06T11:00:56.463Z,37.37
2018-04-06T11:03:23.919Z,37.04
2018-04-06T11:05:51.381Z,36.92
2018-04-06T11:08:18.898Z,36.92
2018-04-06T11:10:46.351Z,37.18
2018-04-06T11:13:13.770Z,37.14
2018-04-06T11:15:41.325Z,37.14
2018-04-06T11:18:09.405Z,36.82
2018-04-06T11:20:36.907Z,36.70
2018-04-06T11:23:04.336Z,36.62
2018-04-06T11:25:31.744Z,36.83
2018-04-06T11:27:59.129Z,36.74
2018-04-06T11:30:26.525Z,36.30
2018-04-06T11:32:54.086Z,36.07
2018-04-06T11:35:21.568Z,36.33
2018-04-06T11:37:49.040Z,36.30
2018-04-06T11:40:16.505Z,36.46
2018-04-06T11:42:43.987Z,36.26
2018-04-06T11:45:11.458Z,36.35
2018-04-06T11:47:39.048Z,35.71
2018-04-06T11:50:06.441Z,35.70
2018-04-06T11:52:34.588Z,35.05
2018-04-06T11:55:02.078Z,35.02
2018-04-06T11:57:29.485Z,35.40
2018-04-06T11:59:56.868Z,35.71
2018-04-06T12:02:24.406Z,36.00
2018-04-06T12:04:51.852Z,35.76
2018-04-06T12:07:19.252Z,35.85
2018-04-06T12:09:46.757Z,35.77
2018-04-06T12:12:14.149Z,35.79
2018-04-06T12:14:41.629Z,35.74
2018-04-06T12:17:09.098Z,35.12
2018-04-06T12:19:36.638Z,34.88
2018-04-06T12:22:04.098Z,34.74
2018-04-06T12:24:31.570Z,35.02
2018-04-06T12:26:58.970Z,35.01
2018-04-06T12:29:26.410Z,34.67
2018-04-06T12:31:53.851Z,34.52
2018-04-06T12:34:21.352Z,34.10
2018-04-06T12:36:48.807Z,33.95
2018-04-06T12:39:16.229Z,33.50
2018-04-06T12:44:16.359Z,32.87
2018-04-06T12:46:43.791Z,32.53
2018-04-06T12:49:11.393Z,32.28
2018-04-06T12:51:38.857Z,32.17
2018-04-06T12:54:06.287Z,32.27
2018-04-06T12:56:33.676Z,32.76
2018-04-06T12:59:01.064Z,33.18
2018-04-06T13:01:28.505Z,33.27
2018-04-06T13:03:56.031Z,32.99
2018-04-06T13:06:23.496Z,32.87
2018-04-06T13:08:50.988Z,33.11
2018-04-06T13:11:18.431Z,32.87
2018-04-06T13:13:45.844Z,32.37
2018-04-06T13:16:13.355Z,31.86
2018-04-06T13:18:41.056Z,31.50
2018-04-06T13:21:08.450Z,31.79
2018-04-06T13:23:35.861Z,31.90
2018-04-06T13:26:03.408Z,31.82
2018-04-06T13:28:30.878Z,32.15
2018-04-06T13:30:58.314Z,32.10
2018-04-06T13:33:25.725Z,32.21
2018-04-06T13:35:53.286Z,32.30
2018-04-06T13:38:20.842Z,32.31
2018-04-06T13:40:48.247Z,32.51
2018-04-06T13:43:15.736Z,32.38
2018-04-06T13:45:43.341Z,32.15
2018-04-06T13:48:10.772Z,31.96
2018-04-06T13:50:38.201Z,31.59
2018-04-06T13:53:05.605Z,30.92
2018-04-06T13:55:33.161Z,30.64
2018-04-06T13:58:00.625Z,30.05
2018-04-06T14:00:28.157Z,30.43
2018-04-06T14:02:55.755Z,29.98
2018-04-06T14:05:23.142Z,29.41
2018-04-06T14:07:50.627Z,28.91
2018-04-06T14:10:18.049Z,28.97
2018-04-06T14:12:45.515Z,28.89
2018-04-06T14:15:13.049Z,28.96
2018-04-06T14:17:40.516Z,28.94
2018-04-06T14:20:08.047Z,29.00
2018-04-06T14:22:35.500Z,28.90
2018-04-06T14:25:03.167Z,28.73
2018-04-06T14:27:30.610Z,28.93
2018-04-06T14:29:58.047Z,28.79
2018-04-06T14:32:25.513Z,28.48
2018-04-06T14:34:52.988Z,28.29
2018-04-06T14:37:20.449Z,28.47
2018-04-06T14:39:47.918Z,29.17
2018-04-06T14:42:15.316Z,28.88
2018-04-06T14:44:42.999Z,28.61
2018-04-06T14:47:10.435Z,28.26
2018-04-06T14:49:37.929Z,28.39
2018-04-06T14:52:05.335Z,28.80
2018-04-06T14:54:32.739Z,29.08
2018-04-06T14:57:00.230Z,29.03
2018-04-06T14:59:27.651Z,29.31
2018-04-06T15:01:55.065Z,29.73
2018-04-06T15:04:22.549Z,29.18
2018-04-06T15:06:50.028Z,28.84
2018-04-06T15:09:17.486Z,29.77
2018-04-06T15:11:44.917Z,30.51
2018-04-06T15:14:12.353Z,30.78
2018-04-06T15:16:39.759Z,31.12
2018-04-06T15:19:07.345Z,31.09
2018-04-06T15:21:34.870Z,31.11
2018-04-06T15:24:02.435Z,31.16
2018-04-06T15:26:29.834Z,31.24
2018-04-06T15:28:57.287Z,31.29
2018-04-06T15:31:25.443Z,31.02
2018-04-06T15:33:52.946Z,31.05
2018-04-06T15:36:20.398Z,30.85
2018-04-06T15:38:47.788Z,30.78
2018-04-06T15:41:15.222Z,31.22
2018-04-06T15:43:42.649Z,31.18
2018-04-06T15:46:10.085Z,31.29
2018-04-06T15:48:37.767Z,31.35
2018-04-06T15:51:05.334Z,31.17
2018-04-06T15:53:32.759Z,31.33
2018-04-06T15:56:00.224Z,31.21
2018-04-06T15:58:28.623Z,30.77
2018-04-06T16:00:56.106Z,30.67
2018-04-06T16:03:23.544Z,31.24
2018-04-06T16:05:51.015Z,31.30
2018-04-06T16:08:18.540Z,31.22
2018-04-06T16:10:45.965Z,31.32
2018-04-06T16:13:13.368Z,31.50
2018-04-06T16:15:40.782Z,31.57
2018-04-06T16:18:08.181Z,31.05
2018-04-06T16:20:35.656Z,31.04
2018-04-06T16:23:03.122Z,31.16
2018-04-06T16:25:30.559Z,31.09
2018-04-06T16:27:57.990Z,31.01
2018-04-06T16:30:25.443Z,30.97
2018-04-06T16:32:52.867Z,30.86
2018-04-06T16:35:20.346Z,31.78
2018-04-06T16:37:48.682Z,32.34
2018-04-06T16:40:16.106Z,32.97
2018-04-06T16:42:43.606Z,32.28
2018-04-06T16:45:11.046Z,31.45
2018-04-06T16:47:38.481Z,31.01
2018-04-06T16:50:06.128Z,31.21
2018-04-06T16:52:34.293Z,30.37
2018-04-06T16:55:01.722Z,29.91
2018-04-06T16:57:29.119Z,29.40
2018-04-06T16:59:56.596Z,29.35
2018-04-06T17:02:24.000Z,29.36
2018-04-06T17:04:51.435Z,29.47
2018-04-06T17:07:18.853Z,29.67
2018-04-06T17:09:46.318Z,29.86
2018-04-06T17:12:13.739Z,30.12
2018-04-06T17:14:41.128Z,30.47
2018-04-06T17:17:08.554Z,30.90
2018-04-06T17:19:36.025Z,30.88
2018-04-06T17:22:03.683Z,31.07
2018-04-06T17:24:31.153Z,31.71
2018-04-06T17:26:58.585Z,32.28
2018-04-06T17:29:26.483Z,32.57
2018-04-06T17:31:53.927Z,32.73
2018-04-06T17:34:21.726Z,32.84
2018-04-06T17:36:49.152Z,32.76
2018-04-06T17:39:16.605Z,32.51
2018-04-06T17:41:44.044Z,32.86
2018-04-06T17:44:11.504Z,33.24
2018-04-06T17:46:39.666Z,33.96
2018-04-06T17:49:07.111Z,34.50
2018-04-06T17:51:34.675Z,34.77
2018-04-06T17:54:02.146Z,35.25
2018-04-06T17:56:29.598Z,35.51
2018-04-06T17:58:57.222Z,35.59
2018-04-06T18:01:24.877Z,36.07
2018-04-06T18:03:52.301Z,36.46
2018-04-06T18:06:19.877Z,36.77
2018-04-06T18:08:47.567Z,36.87
2018-04-06T18:11:14.965Z,37.55
2018-04-06T18:13:42.388Z,38.06
2018-04-06T18:16:09.813Z,38.24
2018-04-06T18:18:37.220Z,39.02
2018-04-06T18:21:04.683Z,39.18
2018-04-06T18:23:32.057Z,39.23
2018-04-06T18:25:59.559Z,39.50
2018-04-06T18:28:27.063Z,39.84
2018-04-06T18:30:54.479Z,40.17
2018-04-06T18:33:21.965Z,40.20
2018-04-06T18:35:49.484Z,40.52
2018-04-06T18:38:16.954Z,40.81
2018-04-06T18:40:44.395Z,41.20
2018-04-06T18:43:11.856Z,41.49
2018-04-06T18:45:39.333Z,41.88
2018-04-06T18:48:06.810Z,42.31
2018-04-06T18:50:34.303Z,42.71
2018-04-06T18:53:01.972Z,42.89
2018-04-06T18:55:29.399Z,43.09
2018-04-06T18:57:56.970Z,43.38
2018-04-06T19:00:24.429Z,43.50
2018-04-06T19:02:52.015Z,43.75
2018-04-06T19:05:19.465Z,44.01
2018-04-06T19:07:46.913Z,44.30
2018-04-06T19:10:14.397Z,44.62
2018-04-06T19:12:41.840Z,44.79
2018-04-06T19:15:09.236Z,44.98
2018-04-06T19:17:36.665Z,45.11
2018-04-06T19:20:04.117Z,45.20
2018-04-06T19:22:31.594Z,45.61
2018-04-06T19:24:59.100Z,46.14
2018-04-06T19:27:26.646Z,46.72
2018-04-06T19:29:54.085Z,47.46
2018-04-06T19:32:21.555Z,48.21
2018-04-06T19:34:49.163Z,48.90
2018-04-06T19:37:16.577Z,49.85
2018-04-06T19:39:44.050Z,50.01
2018-04-06T19:42:11.585Z,50.04
2018-04-06T19:44:39.262Z,49.99
2018-04-06T19:47:06.656Z,49.80
2018-04-06T19:49:34.273Z,49.98
2018-04-06T19:52:04.829Z,49.82
2018-04-06T19:54:32.267Z,49.74
2018-04-06T19:56:59.745Z,49.86
2018-04-06T19:59:27.180Z,50.09
2018-04-06T20:01:54.702Z,50.47
2018-04-06T20:04:22.285Z,50.91
2018-04-06T20:06:49.769Z,51.26
2018-04-06T20:09:17.245Z,51.50
2018-04-06T20:11:44.664Z,51.69
2018-04-06T20:14:12.155Z,52.01
2018-04-06T20:16:39.723Z,52.20
2018-04-06T20:19:07.853Z,52.61
2018-04-06T20:21:35.264Z,52.91
2018-04-06T20:24:02.811Z,53.22
2018-04-06T20:26:30.356Z,53.55
2018-04-06T20:28:57.826Z,53.59
2018-04-06T20:31:25.310Z,53.76
2018-04-06T20:33:53.309Z,54.12
2018-04-06T20:36:20.728Z,54.37
2018-04-06T20:38:48.201Z,54.52
2018-04-06T20:41:15.623Z,54.80
2018-04-06T20:43:43.040Z,54.87
2018-04-06T20:46:10.639Z,54.95
2018-04-06T20:48:38.089Z,55.04
2018-04-06T20:51:05.556Z,55.12
2018-04-06T20:53:33.094Z,55.25
2018-04-06T20:56:00.542Z,55.43
2018-04-06T20:58:27.978Z,55.77
2018-04-06T21:00:55.394Z,56.00
2018-04-06T21:03:22.871Z,56.14
2018-04-06T21:05:50.352Z,56.39
2018-04-06T21:08:17.760Z,56.43
2018-04-06T21:10:45.228Z,56.56
2018-04-06T21:13:12.705Z,56.56
2018-04-06T21:15:40.163Z,56.71
2018-04-06T21:18:07.649Z,56.93
2018-04-06T21:20:35.152Z,57.13
2018-04-06T21:23:02.567Z,57.21
2018-04-06T21:25:30.070Z,56.67
2018-04-06T21:27:57.456Z,56.34
2018-04-06T21:30:24.902Z,56.11
2018-04-06T21:32:52.382Z,55.72
2018-04-06T21:35:19.791Z,55.76
2018-04-06T21:37:47.230Z,55.43
2018-04-06T21:40:14.616Z,55.06
2018-04-06T21:42:42.154Z,54.93
2018-04-06T21:45:09.620Z,54.76
2018-04-06T21:47:37.065Z,54.69
2018-04-06T21:50:04.766Z,54.71
2018-04-06T21:52:32.770Z,54.55
2018-04-06T21:55:00.195Z,54.54
2018-04-06T21:57:27.620Z,54.58
2018-04-06T21:59:55.107Z,54.60
2018-04-06T22:02:22.537Z,54.69
2018-04-06T22:04:49.976Z,54.96
2018-04-06T22:07:17.507Z,55.14
2018-04-06T22:09:44.930Z,55.19
2018-04-06T22:12:12.407Z,54.98
2018-04-06T22:14:39.832Z,55.01
2018-04-06T22:17:07.239Z,55.16
2018-04-06T22:19:34.863Z,55.11
2018-04-06T22:22:02.301Z,55.19
2018-04-06T22:24:30.553Z,55.32
2018-04-06T22:26:58.040Z,55.61
2018-04-06T22:29:25.499Z,55.53
2018-04-06T22:31:52.888Z,55.60
2018-04-06T22:34:20.435Z,55.76
2018-04-06T22:36:47.945Z,55.87
2018-04-06T22:39:15.348Z,55.81
2018-04-06T22:41:42.809Z,55.99
2018-04-06T22:44:10.245Z,56.29
2018-04-06T22:46:37.720Z,56.40
2018-04-06T22:49:05.953Z,56.38
2018-04-06T22:51:33.431Z,56.42
2018-04-06T22:54:00.900Z,56.61
2018-04-06T22:56:28.313Z,56.79
2018-04-06T22:58:55.746Z,56.96
2018-04-06T23:01:23.659Z,56.72
2018-04-06T23:03:51.130Z,56.66
2018-04-06T23:06:18.554Z,57.10
2018-04-06T23:08:46.020Z,57.44
2018-04-06T23:11:13.460Z,57.73
2018-04-06T23:13:40.864Z,57.93
2018-04-06T23:16:08.379Z,57.99
2018-04-06T23:18:35.881Z,57.85
2018-04-06T23:21:03.320Z,58.07
2018-04-06T23:23:30.784Z,58.27
2018-04-06T23:25:58.246Z,58.29
2018-04-06T23:28:25.758Z,58.38
2018-04-06T23:30:53.194Z,57.95
2018-04-06T23:33:20.703Z,58.15
2018-04-06T23:35:48.178Z,58.23
2018-04-06T23:38:15.746Z,58.71
2018-04-06T23:40:43.359Z,59.06
2018-04-06T23:43:10.774Z,58.81
2018-04-06T23:45:38.654Z,58.36
2018-04-06T23:48:06.102Z,58.35
2018-04-06T23:50:33.578Z,58.70
2018-04-06T23:53:00.982Z,58.94
2018-04-06T23:55:28.536Z,59.28
2018-04-06T23:57:55.970Z,59.20
